sensor_id;sensor_type;location;lat;lon;timestamp;pressure;altitude;pressure_sealevel;temperature;humidity
31403;BME280;18039;52.188;21.024;2023-06-19T00:01:26;75800.38;;;-141.45;98.41
31403;BME280;18039;52.188;21.024;2023-06-19T00:03:54;75798.38;;;-141.45;98.32
31403;BME280;18039;52.188;21.024;2023-06-19T00:06:21;75804.44;;;-141.45;98.27
31403;BME280;18039;52.188;21.024;2023-06-19T00:08:48;75802.41;;;-141.45;98.47
31403;BME280;18039;52.188;21.024;2023-06-19T00:11:16;75810.53;;;-141.45;98.51
31403;BME280;18039;52.188;21.024;2023-06-19T00:13:43;75824.72;;;-141.45;98.36
31403;BME280;18039;52.188;21.024;2023-06-19T00:16:10;75838.91;;;-141.45;98.57
31403;BME280;18039;52.188;21.024;2023-06-19T00:18:38;75842.94;;;-141.45;99.08
31403;BME280;18039;52.188;21.024;2023-06-19T00:21:08;75855.09;;;-141.45;99.20
31403;BME280;18039;52.188;21.024;2023-06-19T00:23:35;75851.06;;;-141.45;99.64
31403;BME280;18039;52.188;21.024;2023-06-19T00:26:03;75851.06;;;-141.45;99.59
31403;BME280;18039;52.188;21.024;2023-06-19T00:28:32;75855.09;;;-141.45;99.64
31403;BME280;18039;52.188;21.024;2023-06-19T00:31:01;75855.09;;;-141.45;99.92
31403;BME280;18039;52.188;21.024;2023-06-19T00:33:28;75853.09;;;-141.45;99.95
31403;BME280;18039;52.188;21.024;2023-06-19T00:35:56;75851.06;;;-141.45;99.71
31403;BME280;18039;52.188;21.024;2023-06-19T00:38:23;75859.16;;;-141.45;99.44
31403;BME280;18039;52.188;21.024;2023-06-19T00:40:50;75869.28;;;-141.45;99.31
31403;BME280;18039;52.188;21.024;2023-06-19T00:43:18;75875.38;;;-141.45;99.63
31403;BME280;18039;52.188;21.024;2023-06-19T00:45:45;75891.59;;;-141.45;99.80
31403;BME280;18039;52.188;21.024;2023-06-19T00:48:13;75887.53;;;-141.45;100.00
31403;BME280;18039;52.188;21.024;2023-06-19T00:50:40;75887.53;;;-141.45;100.00
31403;BME280;18039;52.188;21.024;2023-06-19T00:53:07;75891.59;;;-141.45;100.00
31403;BME280;18039;52.188;21.024;2023-06-19T00:55:36;75887.53;;;-141.45;100.00
31403;BME280;18039;52.188;21.024;2023-06-19T00:58:03;75895.66;;;-141.45;99.79
31403;BME280;18039;52.188;21.024;2023-06-19T01:00:31;75895.66;;;-141.45;99.78
31403;BME280;18039;52.188;21.024;2023-06-19T01:02:59;75901.72;;;-141.45;99.88
31403;BME280;18039;52.188;21.024;2023-06-19T01:05:28;75907.81;;;-141.45;100.00
31403;BME280;18039;52.188;21.024;2023-06-19T01:08:03;75911.84;;;-141.45;100.00
31403;BME280;18039;52.188;21.024;2023-06-19T01:10:36;75919.97;;;-141.45;100.00
31403;BME280;18039;52.188;21.024;2023-06-19T01:13:13;75930.09;;;-141.45;100.00
31403;BME280;18039;52.188;21.024;2023-06-19T01:15:43;75936.19;;;-141.45;100.00
31403;BME280;18039;52.188;21.024;2023-06-19T01:18:11;75944.28;;;-141.45;100.00
31403;BME280;18039;52.188;21.024;2023-06-19T01:20:42;75944.28;;;-141.45;100.00
31403;BME280;18039;52.188;21.024;2023-06-19T01:23:10;75948.34;;;-141.45;100.00
31403;BME280;18039;52.188;21.024;2023-06-19T01:25:38;75958.47;;;-141.45;100.00
31403;BME280;18039;52.188;21.024;2023-06-19T01:28:09;75956.44;;;-141.45;100.00
31403;BME280;18039;52.188;21.024;2023-06-19T01:30:40;75950.38;;;-141.45;100.00
31403;BME280;18039;52.188;21.024;2023-06-19T01:35:42;75936.19;;;-141.45;100.00
31403;BME280;18039;52.188;21.024;2023-06-19T01:38:11;75940.22;;;-141.45;100.00
31403;BME280;18039;52.188;21.024;2023-06-19T01:40:40;75936.19;;;-141.45;100.00
31403;BME280;18039;52.188;21.024;2023-06-19T01:43:09;75940.22;;;-141.45;100.00
31403;BME280;18039;52.188;21.024;2023-06-19T01:45:38;75944.28;;;-141.45;100.00
31403;BME280;18039;52.188;21.024;2023-06-19T01:48:06;75940.22;;;-141.45;100.00
31403;BME280;18039;52.188;21.024;2023-06-19T01:50:33;75944.28;;;-141.45;100.00
31403;BME280;18039;52.188;21.024;2023-06-19T01:53:01;75948.34;;;-141.45;100.00
31403;BME280;18039;52.188;21.024;2023-06-19T01:55:28;75958.47;;;-141.45;100.00
31403;BME280;18039;52.188;21.024;2023-06-19T01:57:57;75970.63;;;-141.45;100.00
31403;BME280;18039;52.188;21.024;2023-06-19T02:00:24;75956.44;;;-141.45;100.00
31403;BME280;18039;52.188;21.024;2023-06-19T02:02:52;75950.38;;;-141.45;100.00
31403;BME280;18039;52.188;21.024;2023-06-19T02:05:19;75946.31;;;-141.45;100.00
31403;BME280;18039;52.188;21.024;2023-06-19T02:07:47;75948.34;;;-141.45;100.00
31403;BME280;18039;52.188;21.024;2023-06-19T02:10:15;75956.44;;;-141.45;100.00
31403;BME280;18039;52.188;21.024;2023-06-19T02:12:43;75964.56;;;-141.45;100.00
31403;BME280;18039;52.188;21.024;2023-06-19T02:15:10;75972.66;;;-141.45;100.00
31403;BME280;18039;52.188;21.024;2023-06-19T02:17:37;75968.59;;;-141.45;100.00
31403;BME280;18039;52.188;21.024;2023-06-19T02:20:05;75968.59;;;-141.45;100.00
31403;BME280;18039;52.188;21.024;2023-06-19T02:22:40;75968.59;;;-141.45;100.00
31403;BME280;18039;52.188;21.024;2023-06-19T02:25:08;75968.59;;;-141.45;100.00
31403;BME280;18039;52.188;21.024;2023-06-19T02:27:35;75964.56;;;-141.45;100.00
31403;BME280;18039;52.188;21.024;2023-06-19T02:30:03;75960.50;;;-141.45;100.00
31403;BME280;18039;52.188;21.024;2023-06-19T02:32:30;75960.50;;;-141.45;100.00
31403;BME280;18039;52.188;21.024;2023-06-19T02:34:58;75952.38;;;-141.45;100.00
31403;BME280;18039;52.188;21.024;2023-06-19T02:37:25;75956.44;;;-141.45;100.00
31403;BME280;18039;52.188;21.024;2023-06-19T02:39:52;75952.38;;;-141.45;100.00
31403;BME280;18039;52.188;21.024;2023-06-19T02:42:20;75952.38;;;-141.45;100.00
31403;BME280;18039;52.188;21.024;2023-06-19T02:44:47;75964.56;;;-141.45;100.00
31403;BME280;18039;52.188;21.024;2023-06-19T02:47:14;75976.72;;;-141.45;100.00
31403;BME280;18039;52.188;21.024;2023-06-19T02:49:42;75976.72;;;-141.45;100.00
31403;BME280;18039;52.188;21.024;2023-06-19T02:52:09;75982.78;;;-141.45;100.00
31403;BME280;18039;52.188;21.024;2023-06-19T02:54:36;75970.63;;;-141.45;100.00
31403;BME280;18039;52.188;21.024;2023-06-19T02:57:04;75966.56;;;-141.45;100.00
31403;BME280;18039;52.188;21.024;2023-06-19T02:59:32;75964.56;;;-141.45;100.00
31403;BME280;18039;52.188;21.024;2023-06-19T03:01:59;75956.44;;;-141.45;100.00
31403;BME280;18039;52.188;21.024;2023-06-19T03:04:26;75952.38;;;-141.45;100.00
31403;BME280;18039;52.188;21.024;2023-06-19T03:06:55;75944.28;;;-141.45;100.00
31403;BME280;18039;52.188;21.024;2023-06-19T03:09:22;75946.31;;;-141.45;100.00
31403;BME280;18039;52.188;21.024;2023-06-19T03:11:49;75940.22;;;-141.45;100.00
31403;BME280;18039;52.188;21.024;2023-06-19T03:14:17;75932.13;;;-141.45;100.00
31403;BME280;18039;52.188;21.024;2023-06-19T03:16:44;75924.00;;;-141.45;100.00
31403;BME280;18039;52.188;21.024;2023-06-19T03:19:12;75924.00;;;-141.45;100.00
31403;BME280;18039;52.188;21.024;2023-06-19T03:21:39;75924.00;;;-141.45;100.00
31403;BME280;18039;52.188;21.024;2023-06-19T03:24:07;75915.91;;;-141.45;100.00
31403;BME280;18039;52.188;21.024;2023-06-19T03:26:35;75907.81;;;-141.45;100.00
31403;BME280;18039;52.188;21.024;2023-06-19T03:29:02;75905.78;;;-141.45;99.63
31403;BME280;18039;52.188;21.024;2023-06-19T03:31:47;75907.81;;;-141.45;99.13
31403;BME280;18039;52.188;21.024;2023-06-19T03:34:15;75895.66;;;-141.45;99.47
31403;BME280;18039;52.188;21.024;2023-06-19T03:36:43;75883.47;;;-141.45;99.17
31403;BME280;18039;52.188;21.024;2023-06-19T03:39:10;75871.31;;;-141.45;98.87
31403;BME280;18039;52.188;21.024;2023-06-19T03:41:38;75871.31;;;-141.45;98.36
31403;BME280;18039;52.188;21.024;2023-06-19T03:44:05;75875.38;;;-141.45;98.04
31403;BME280;18039;52.188;21.024;2023-06-19T03:46:33;75875.38;;;-141.45;98.50
31403;BME280;18039;52.188;21.024;2023-06-19T03:49:01;75869.28;;;-141.45;97.97
31403;BME280;18039;52.188;21.024;2023-06-19T03:51:30;75859.16;;;-141.45;98.06
31403;BME280;18039;52.188;21.024;2023-06-19T03:53:57;75847.00;;;-141.45;97.77
31403;BME280;18039;52.188;21.024;2023-06-19T03:56:24;75834.84;;;-141.45;97.41
31403;BME280;18039;52.188;21.024;2023-06-19T03:58:51;75818.63;;;-141.45;96.73
31403;BME280;18039;52.188;21.024;2023-06-19T04:01:19;75806.47;;;-141.45;96.10
31403;BME280;18039;52.188;21.024;2023-06-19T04:03:48;75806.47;;;-141.45;95.37
31403;BME280;18039;52.188;21.024;2023-06-19T04:06:15;75810.53;;;-141.45;95.28
31403;BME280;18039;52.188;21.024;2023-06-19T04:08:43;75806.47;;;-141.45;95.56
31403;BME280;18039;52.188;21.024;2023-06-19T04:11:12;75798.38;;;-141.45;95.46
31403;BME280;18039;52.188;21.024;2023-06-19T04:13:39;75790.25;;;-141.45;95.41
31403;BME280;18039;52.188;21.024;2023-06-19T04:16:06;75794.31;;;-141.45;95.44
31403;BME280;18039;52.188;21.024;2023-06-19T04:18:34;75794.31;;;-141.45;95.39
31403;BME280;18039;52.188;21.024;2023-06-19T04:21:03;75806.47;;;-141.45;95.42
31403;BME280;18039;52.188;21.024;2023-06-19T04:23:32;75806.47;;;-141.45;95.50
31403;BME280;18039;52.188;21.024;2023-06-19T04:25:59;75810.53;;;-141.45;95.59
31403;BME280;18039;52.188;21.024;2023-06-19T04:28:26;75814.56;;;-141.45;95.79
31403;BME280;18039;52.188;21.024;2023-06-19T04:30:54;75814.56;;;-141.45;95.62
31403;BME280;18039;52.188;21.024;2023-06-19T04:33:29;75806.47;;;-141.45;95.54
31403;BME280;18039;52.188;21.024;2023-06-19T04:35:56;75790.25;;;-141.45;95.58
31403;BME280;18039;52.188;21.024;2023-06-19T04:38:24;75774.03;;;-141.45;95.34
31403;BME280;18039;52.188;21.024;2023-06-19T04:40:51;75753.78;;;-141.45;94.66
31403;BME280;18039;52.188;21.024;2023-06-19T04:43:19;75737.56;;;-141.45;94.26
31403;BME280;18039;52.188;21.024;2023-06-19T04:45:46;75721.34;;;-141.45;93.63
31403;BME280;18039;52.188;21.024;2023-06-19T04:48:14;75709.19;;;-141.45;93.37
31403;BME280;18039;52.188;21.024;2023-06-19T04:50:41;75692.97;;;-141.45;93.18
31403;BME280;18039;52.188;21.024;2023-06-19T04:53:08;75672.72;;;-141.45;92.56
31403;BME280;18039;52.188;21.024;2023-06-19T04:55:35;75654.47;;;-141.45;91.45
31403;BME280;18039;52.188;21.024;2023-06-19T04:58:04;75636.22;;;-141.45;90.78
31403;BME280;18039;52.188;21.024;2023-06-19T05:00:32;75615.97;;;-141.45;90.25
31403;BME280;18039;52.188;21.024;2023-06-19T05:02:59;75603.81;;;-141.45;89.47
31403;BME280;18039;52.188;21.024;2023-06-19T05:05:28;75585.56;;;-141.45;88.53
31403;BME280;18039;52.188;21.024;2023-06-19T05:07:55;75569.34;;;-141.45;88.27
31403;BME280;18039;52.188;21.024;2023-06-19T05:10:23;75555.19;;;-141.45;86.77
31403;BME280;18039;52.188;21.024;2023-06-19T05:12:51;75538.97;;;-141.45;86.49
31403;BME280;18039;52.188;21.024;2023-06-19T05:15:18;75522.75;;;-141.45;85.06
31403;BME280;18039;52.188;21.024;2023-06-19T05:17:45;75514.66;;;-141.45;84.30
31403;BME280;18039;52.188;21.024;2023-06-19T05:20:13;75498.44;;;-141.45;84.35
31403;BME280;18039;52.188;21.024;2023-06-19T05:22:41;75480.19;;;-141.45;84.02
31403;BME280;18039;52.188;21.024;2023-06-19T05:25:08;75478.16;;;-141.45;83.05
31403;BME280;18039;52.188;21.024;2023-06-19T05:27:36;75470.06;;;-141.45;82.88
31403;BME280;18039;52.188;21.024;2023-06-19T05:30:04;75461.97;;;-141.45;82.47
31403;BME280;18039;52.188;21.024;2023-06-19T05:32:32;75457.91;;;-141.45;82.40
31403;BME280;18039;52.188;21.024;2023-06-19T05:34:59;75453.84;;;-141.45;82.72
31403;BME280;18039;52.188;21.024;2023-06-19T05:37:27;75429.53;;;-141.45;82.85
31403;BME280;18039;52.188;21.024;2023-06-19T05:39:54;75405.22;;;-141.45;82.30
31403;BME280;18039;52.188;21.024;2023-06-19T05:42:22;75393.06;;;-141.45;81.26
31403;BME280;18039;52.188;21.024;2023-06-19T05:44:49;75380.91;;;-141.45;81.18
31403;BME280;18039;52.188;21.024;2023-06-19T05:47:17;75384.97;;;-141.45;79.84
31403;BME280;18039;52.188;21.024;2023-06-19T05:49:47;75389.00;;;-141.45;79.59
31403;BME280;18039;52.188;21.024;2023-06-19T05:52:14;75397.13;;;-141.45;79.59
31403;BME280;18039;52.188;21.024;2023-06-19T05:54:41;75397.13;;;-141.45;79.40
31403;BME280;18039;52.188;21.024;2023-06-19T05:57:09;75409.28;;;-141.45;78.69
31403;BME280;18039;52.188;21.024;2023-06-19T05:59:36;75413.31;;;-141.45;79.00
31403;BME280;18039;52.188;21.024;2023-06-19T06:02:03;75417.38;;;-141.45;78.95
31403;BME280;18039;52.188;21.024;2023-06-19T06:04:31;75425.47;;;-141.45;77.94
31403;BME280;18039;52.188;21.024;2023-06-19T06:06:58;75423.47;;;-141.45;77.80
31403;BME280;18039;52.188;21.024;2023-06-19T06:09:26;75429.53;;;-141.45;77.60
31403;BME280;18039;52.188;21.024;2023-06-19T06:11:54;75419.41;;;-141.45;77.12
31403;BME280;18039;52.188;21.024;2023-06-19T06:14:21;75413.31;;;-141.45;76.88
31403;BME280;18039;52.188;21.024;2023-06-19T06:16:48;75413.31;;;-141.45;76.24
31403;BME280;18039;52.188;21.024;2023-06-19T06:19:15;75405.22;;;-141.45;75.90
31403;BME280;18039;52.188;21.024;2023-06-19T06:21:43;75405.22;;;-141.45;75.42
31403;BME280;18039;52.188;21.024;2023-06-19T06:24:10;75397.13;;;-141.45;75.68
31403;BME280;18039;52.188;21.024;2023-06-19T06:26:37;75393.06;;;-141.45;75.70
31403;BME280;18039;52.188;21.024;2023-06-19T06:29:04;75384.97;;;-141.45;74.92
31403;BME280;18039;52.188;21.024;2023-06-19T06:31:32;75389.00;;;-141.45;73.74
31403;BME280;18039;52.188;21.024;2023-06-19T06:33:59;75401.16;;;-141.45;71.93
31403;BME280;18039;52.188;21.024;2023-06-19T06:36:27;75393.06;;;-141.45;72.52
31403;BME280;18039;52.188;21.024;2023-06-19T06:39:02;75384.97;;;-141.45;72.32
31403;BME280;18039;52.188;21.024;2023-06-19T06:41:31;75376.84;;;-141.45;71.47
31403;BME280;18039;52.188;21.024;2023-06-19T06:43:58;75372.78;;;-141.45;71.47
31403;BME280;18039;52.188;21.024;2023-06-19T06:46:25;75360.63;;;-141.45;71.68
31403;BME280;18039;52.188;21.024;2023-06-19T06:48:53;75368.75;;;-141.45;71.60
31403;BME280;18039;52.188;21.024;2023-06-19T06:51:22;75364.69;;;-141.45;72.11
31403;BME280;18039;52.188;21.024;2023-06-19T06:53:50;75344.44;;;-141.45;72.34
31403;BME280;18039;52.188;21.024;2023-06-19T06:56:18;75332.28;;;-141.45;71.96
31403;BME280;18039;52.188;21.024;2023-06-19T06:58:45;75324.16;;;-141.45;71.65
31403;BME280;18039;52.188;21.024;2023-06-19T07:01:14;75320.13;;;-141.45;70.42
31403;BME280;18039;52.188;21.024;2023-06-19T07:03:41;75328.22;;;-141.45;70.97
31403;BME280;18039;52.188;21.024;2023-06-19T07:06:09;75328.22;;;-141.45;71.22
31403;BME280;18039;52.188;21.024;2023-06-19T07:08:36;75307.94;;;-141.45;71.34
31403;BME280;18039;52.188;21.024;2023-06-19T07:11:04;75299.84;;;-141.45;71.65
31403;BME280;18039;52.188;21.024;2023-06-19T07:13:31;75291.75;;;-141.45;72.22
31403;BME280;18039;52.188;21.024;2023-06-19T07:15:59;75279.59;;;-141.45;71.88
31403;BME280;18039;52.188;21.024;2023-06-19T07:18:28;75267.44;;;-141.45;71.43
31403;BME280;18039;52.188;21.024;2023-06-19T07:20:55;75255.25;;;-141.45;71.04
31403;BME280;18039;52.188;21.024;2023-06-19T07:23:22;75243.09;;;-141.45;70.27
31403;BME280;18039;52.188;21.024;2023-06-19T07:25:50;75230.94;;;-141.45;70.24
31403;BME280;18039;52.188;21.024;2023-06-19T07:28:17;75226.91;;;-141.45;69.16
31403;BME280;18039;52.188;21.024;2023-06-19T07:30:44;75230.94;;;-141.45;68.54
31403;BME280;18039;52.188;21.024;2023-06-19T07:33:14;75226.91;;;-141.45;68.19
31403;BME280;18039;52.188;21.024;2023-06-19T07:35:42;75222.84;;;-141.45;69.02
31403;BME280;18039;52.188;21.024;2023-06-19T07:38:09;75218.78;;;-141.45;69.49
31403;BME280;18039;52.188;21.024;2023-06-19T07:40:36;75210.69;;;-141.45;69.78
31403;BME280;18039;52.188;21.024;2023-06-19T07:43:04;75218.78;;;-141.45;69.30
31403;BME280;18039;52.188;21.024;2023-06-19T07:45:31;75226.91;;;-141.45;69.61
31403;BME280;18039;52.188;21.024;2023-06-19T07:47:58;75218.78;;;-141.45;69.81
31403;BME280;18039;52.188;21.024;2023-06-19T07:50:26;75198.53;;;-141.45;69.59
31403;BME280;18039;52.188;21.024;2023-06-19T07:52:55;75186.38;;;-141.45;69.37
31403;BME280;18039;52.188;21.024;2023-06-19T07:55:22;75186.38;;;-141.45;67.45
31403;BME280;18039;52.188;21.024;2023-06-19T07:57:49;75182.31;;;-141.45;68.04
31403;BME280;18039;52.188;21.024;2023-06-19T08:00:17;75182.31;;;-141.45;68.38
31403;BME280;18039;52.188;21.024;2023-06-19T08:02:44;75170.16;;;-141.45;68.06
31403;BME280;18039;52.188;21.024;2023-06-19T08:05:13;75170.16;;;-141.45;67.74
31403;BME280;18039;52.188;21.024;2023-06-19T08:07:40;75166.09;;;-141.45;68.26
31403;BME280;18039;52.188;21.024;2023-06-19T08:10:08;75166.09;;;-141.45;67.81
31403;BME280;18039;52.188;21.024;2023-06-19T08:12:41;75170.16;;;-141.45;65.98
31403;BME280;18039;52.188;21.024;2023-06-19T08:15:10;75153.94;;;-141.45;64.71
31403;BME280;18039;52.188;21.024;2023-06-19T08:17:38;75155.97;;;-141.45;65.64
31403;BME280;18039;52.188;21.024;2023-06-19T08:20:06;75145.84;;;-141.45;65.81
31403;BME280;18039;52.188;21.024;2023-06-19T08:22:34;75133.69;;;-141.45;65.33
31403;BME280;18039;52.188;21.024;2023-06-19T08:25:02;75125.59;;;-141.45;65.44
31403;BME280;18039;52.188;21.024;2023-06-19T08:27:30;75117.47;;;-141.45;65.28
31403;BME280;18039;52.188;21.024;2023-06-19T08:29:57;75105.31;;;-141.45;64.73
31403;BME280;18039;52.188;21.024;2023-06-19T08:32:24;75093.16;;;-141.45;64.31
31403;BME280;18039;52.188;21.024;2023-06-19T08:34:52;75085.06;;;-141.45;63.98
31403;BME280;18039;52.188;21.024;2023-06-19T08:37:19;75085.06;;;-141.45;63.22
31403;BME280;18039;52.188;21.024;2023-06-19T08:39:47;75081.00;;;-141.45;62.45
31403;BME280;18039;52.188;21.024;2023-06-19T08:42:14;75085.06;;;-141.45;62.81
31403;BME280;18039;52.188;21.024;2023-06-19T08:44:42;75076.97;;;-141.45;63.39
31403;BME280;18039;52.188;21.024;2023-06-19T08:47:09;75072.91;;;-141.45;62.94
31403;BME280;18039;52.188;21.024;2023-06-19T08:49:37;75070.88;;;-141.45;62.70
31403;BME280;18039;52.188;21.024;2023-06-19T08:52:04;75068.84;;;-141.45;61.09
31403;BME280;18039;52.188;21.024;2023-06-19T08:54:32;75068.84;;;-141.45;61.43
31403;BME280;18039;52.188;21.024;2023-06-19T08:57:01;75064.81;;;-141.45;61.64
31403;BME280;18039;52.188;21.024;2023-06-19T08:59:30;75060.75;;;-141.45;61.72
31403;BME280;18039;52.188;21.024;2023-06-19T09:01:58;75056.69;;;-141.45;61.87
31403;BME280;18039;52.188;21.024;2023-06-19T09:04:30;75056.69;;;-141.45;60.96
31403;BME280;18039;52.188;21.024;2023-06-19T09:07:02;75040.47;;;-141.45;58.44
31403;BME280;18039;52.188;21.024;2023-06-19T09:09:45;75024.28;;;-141.45;58.94
31403;BME280;18039;52.188;21.024;2023-06-19T09:12:15;75020.22;;;-141.45;58.57
31403;BME280;18039;52.188;21.024;2023-06-19T09:14:54;75016.16;;;-141.45;57.21
31403;BME280;18039;52.188;21.024;2023-06-19T09:17:21;75004.00;;;-141.45;58.26
31403;BME280;18039;52.188;21.024;2023-06-19T09:19:54;74999.97;;;-141.45;58.55
31403;BME280;18039;52.188;21.024;2023-06-19T09:22:24;74995.91;;;-141.45;58.35
31403;BME280;18039;52.188;21.024;2023-06-19T09:24:52;74991.84;;;-141.45;58.24
31403;BME280;18039;52.188;21.024;2023-06-19T09:27:20;74999.97;;;-141.45;58.38
31403;BME280;18039;52.188;21.024;2023-06-19T09:29:49;75004.00;;;-141.45;58.59
31403;BME280;18039;52.188;21.024;2023-06-19T09:32:23;74995.91;;;-141.45;57.58
31403;BME280;18039;52.188;21.024;2023-06-19T09:34:54;74989.84;;;-141.45;57.70
31403;BME280;18039;52.188;21.024;2023-06-19T09:37:24;74963.50;;;-141.45;56.44
31403;BME280;18039;52.188;21.024;2023-06-19T09:40:05;74943.22;;;-141.45;56.55
31403;BME280;18039;52.188;21.024;2023-06-19T09:42:39;74931.06;;;-141.45;56.97
31403;BME280;18039;52.188;21.024;2023-06-19T09:45:13;74910.81;;;-141.45;55.64
31403;BME280;18039;52.188;21.024;2023-06-19T09:47:46;74906.75;;;-141.45;55.06
31403;BME280;18039;52.188;21.024;2023-06-19T09:50:17;74896.63;;;-141.45;55.80
31403;BME280;18039;52.188;21.024;2023-06-19T09:52:49;74874.34;;;-141.45;55.13
31403;BME280;18039;52.188;21.024;2023-06-19T09:55:19;74862.19;;;-141.45;53.38
31403;BME280;18039;52.188;21.024;2023-06-19T09:57:47;74866.25;;;-141.45;53.17
31403;BME280;18039;52.188;21.024;2023-06-19T10:00:15;74870.28;;;-141.45;52.42
31403;BME280;18039;52.188;21.024;2023-06-19T10:02:49;74858.13;;;-141.45;52.48
31403;BME280;18039;52.188;21.024;2023-06-19T10:05:28;74854.09;;;-141.45;53.17
31403;BME280;18039;52.188;21.024;2023-06-19T10:07:55;74833.81;;;-141.45;52.32
31403;BME280;18039;52.188;21.024;2023-06-19T10:10:28;74819.63;;;-141.45;52.25
31403;BME280;18039;52.188;21.024;2023-06-19T10:13:00;74809.50;;;-141.45;52.42
31403;BME280;18039;52.188;21.024;2023-06-19T10:15:41;74805.47;;;-141.45;53.03
31403;BME280;18039;52.188;21.024;2023-06-19T10:18:16;74801.41;;;-141.45;52.95
31403;BME280;18039;52.188;21.024;2023-06-19T10:20:45;74813.56;;;-141.45;53.18
31403;BME280;18039;52.188;21.024;2023-06-19T10:25:47;74841.94;;;-141.45;53.10
31403;BME280;18039;52.188;21.024;2023-06-19T10:28:22;74856.09;;;-141.45;53.38
31403;BME280;18039;52.188;21.024;2023-06-19T10:30:58;74862.19;;;-141.45;54.19
31403;BME280;18039;52.188;21.024;2023-06-19T10:33:27;74870.28;;;-141.45;53.61
31403;BME280;18039;52.188;21.024;2023-06-19T10:35:55;74870.28;;;-141.45;54.19
31403;BME280;18039;52.188;21.024;2023-06-19T10:38:22;74854.09;;;-141.45;54.16
31403;BME280;18039;52.188;21.024;2023-06-19T10:40:50;74841.94;;;-141.45;54.26
31403;BME280;18039;52.188;21.024;2023-06-19T10:43:24;74837.88;;;-141.45;53.94
31403;BME280;18039;52.188;21.024;2023-06-19T10:45:55;74825.72;;;-141.45;54.27
31403;BME280;18039;52.188;21.024;2023-06-19T10:48:24;74809.50;;;-141.45;53.77
31403;BME280;18039;52.188;21.024;2023-06-19T10:50:52;74797.34;;;-141.45;52.67
31403;BME280;18039;52.188;21.024;2023-06-19T10:53:24;74803.44;;;-141.45;53.14
31403;BME280;18039;52.188;21.024;2023-06-19T10:55:56;74805.47;;;-141.45;52.85
31403;BME280;18039;52.188;21.024;2023-06-19T10:58:25;74789.25;;;-141.45;52.40
31403;BME280;18039;52.188;21.024;2023-06-19T11:00:52;74783.16;;;-141.45;50.99
31403;BME280;18039;52.188;21.024;2023-06-19T11:03:20;74764.94;;;-141.45;50.38
31403;BME280;18039;52.188;21.024;2023-06-19T11:05:49;74764.94;;;-141.45;49.64
31403;BME280;18039;52.188;21.024;2023-06-19T11:08:21;74764.94;;;-141.45;49.68
31403;BME280;18039;52.188;21.024;2023-06-19T11:10:49;74744.69;;;-141.45;50.06
31403;BME280;18039;52.188;21.024;2023-06-19T11:13:18;74744.69;;;-141.45;48.98
31403;BME280;18039;52.188;21.024;2023-06-19T11:15:50;74742.66;;;-141.45;49.63
31403;BME280;18039;52.188;21.024;2023-06-19T11:18:18;74738.59;;;-141.45;50.52
31403;BME280;18039;52.188;21.024;2023-06-19T11:20:51;74732.53;;;-141.45;50.78
31403;BME280;18039;52.188;21.024;2023-06-19T11:23:31;74716.31;;;-141.45;48.01
31403;BME280;18039;52.188;21.024;2023-06-19T11:26:05;74700.09;;;-141.45;48.21
31403;BME280;18039;52.188;21.024;2023-06-19T11:28:33;74685.91;;;-141.45;48.96
31403;BME280;18039;52.188;21.024;2023-06-19T11:31:02;74683.91;;;-141.45;47.92
31403;BME280;18039;52.188;21.024;2023-06-19T11:33:30;74667.69;;;-141.45;47.73
31403;BME280;18039;52.188;21.024;2023-06-19T11:36:01;74663.63;;;-141.45;47.50
31403;BME280;18039;52.188;21.024;2023-06-19T11:38:30;74655.53;;;-141.45;46.85
31403;BME280;18039;52.188;21.024;2023-06-19T11:40:58;74647.44;;;-141.45;47.04
31403;BME280;18039;52.188;21.024;2023-06-19T11:43:27;74635.28;;;-141.45;46.44
31403;BME280;18039;52.188;21.024;2023-06-19T11:46:07;74615.00;;;-141.45;45.51
31403;BME280;18039;52.188;21.024;2023-06-19T11:48:38;74606.91;;;-141.45;44.76
31403;BME280;18039;52.188;21.024;2023-06-19T11:51:06;74602.84;;;-141.45;41.69
31403;BME280;18039;52.188;21.024;2023-06-19T11:53:34;74615.00;;;-141.45;41.95
31403;BME280;18039;52.188;21.024;2023-06-19T11:56:02;74623.13;;;-141.45;42.23
31403;BME280;18039;52.188;21.024;2023-06-19T11:58:29;74615.00;;;-141.45;42.76
31403;BME280;18039;52.188;21.024;2023-06-19T12:00:57;74602.84;;;-141.45;42.72
31403;BME280;18039;52.188;21.024;2023-06-19T12:03:24;74598.81;;;-141.45;42.92
31403;BME280;18039;52.188;21.024;2023-06-19T12:05:52;74586.66;;;-141.45;42.59
31403;BME280;18039;52.188;21.024;2023-06-19T12:08:20;74558.28;;;-141.45;42.59
31403;BME280;18039;52.188;21.024;2023-06-19T12:10:48;74554.22;;;-141.45;42.15
31403;BME280;18039;52.188;21.024;2023-06-19T12:13:15;74546.13;;;-141.45;42.22
31403;BME280;18039;52.188;21.024;2023-06-19T12:15:43;74533.97;;;-141.45;42.47
31403;BME280;18039;52.188;21.024;2023-06-19T12:18:10;74529.94;;;-141.45;42.91
31403;BME280;18039;52.188;21.024;2023-06-19T12:20:39;74525.88;;;-141.45;42.69
31403;BME280;18039;52.188;21.024;2023-06-19T12:23:08;74517.78;;;-141.45;42.86
31403;BME280;18039;52.188;21.024;2023-06-19T12:25:35;74521.81;;;-141.45;42.03
31403;BME280;18039;52.188;21.024;2023-06-19T12:28:02;74513.72;;;-141.45;41.71
31403;BME280;18039;52.188;21.024;2023-06-19T12:30:36;74483.31;;;-141.45;42.45
31403;BME280;18039;52.188;21.024;2023-06-19T12:33:03;74475.22;;;-141.45;40.50
31403;BME280;18039;52.188;21.024;2023-06-19T12:35:31;74469.16;;;-141.45;39.37
31403;BME280;18039;52.188;21.024;2023-06-19T12:37:59;74465.09;;;-141.45;39.27
31403;BME280;18039;52.188;21.024;2023-06-19T12:40:26;74465.09;;;-141.45;39.26